createdAt,value
2023-01-18T00:00:21.175Z,98.70
2023-01-18T00:03:23.503Z,98.50
2023-01-18T00:06:27.925Z,98.40
2023-01-18T00:09:30.135Z,98.40
2023-01-18T00:12:33.863Z,98.40
2023-01-18T00:15:36.748Z,98.40
2023-01-18T00:18:38.940Z,98.40
2023-01-18T00:21:41.273Z,98.40
2023-01-18T00:24:43.381Z,98.40
2023-01-18T00:27:51.823Z,98.40
2023-01-18T00:30:54.102Z,98.40
2023-01-18T00:33:56.296Z,98.40
2023-01-18T00:36:58.575Z,98.40
2023-01-18T00:40:01.051Z,98.40
2023-01-18T00:43:21.662Z,98.30
2023-01-18T00:46:27.512Z,98.30
2023-01-18T00:49:29.738Z,98.40
2023-01-18T00:52:33.819Z,98.30
2023-01-18T00:55:35.943Z,98.40
2023-01-18T00:58:38.178Z,98.40
2023-01-18T01:01:40.423Z,98.40
2023-01-18T01:05:01.481Z,98.40
2023-01-18T01:08:04.795Z,98.40
2023-01-18T01:11:12.032Z,98.30
2023-01-18T01:14:32.942Z,98.40
2023-01-18T01:17:56.143Z,98.40
2023-01-18T01:21:16.687Z,98.30
2023-01-18T01:24:37.351Z,98.30
2023-01-18T01:27:39.493Z,98.30
2023-01-18T01:30:41.763Z,98.30
2023-01-18T01:33:45.184Z,98.30
2023-01-18T01:36:47.351Z,98.30
2023-01-18T01:39:49.497Z,98.30
2023-01-18T01:42:51.689Z,98.20
2023-01-18T01:45:53.927Z,98.30
2023-01-18T01:49:07.367Z,98.20
2023-01-18T01:52:11.397Z,98.30
2023-01-18T01:55:23.452Z,98.20
2023-01-18T01:58:29.639Z,98.30
2023-01-18T02:01:32.424Z,98.30
2023-01-18T02:04:35.374Z,98.30
2023-01-18T02:07:37.675Z,98.30
2023-01-18T02:10:40.357Z,98.20
2023-01-18T02:13:42.618Z,98.20
2023-01-18T02:16:44.788Z,98.20
2023-01-18T02:19:46.991Z,98.20
2023-01-18T02:23:24.625Z,98.20
2023-01-18T02:26:44.384Z,98.20
2023-01-18T02:30:11.740Z,98.10
2023-01-18T02:33:29.179Z,98.10
2023-01-18T02:36:42.288Z,98.10
2023-01-18T02:40:06.359Z,98.20
2023-01-18T02:43:29.239Z,98.20
2023-01-18T02:46:36.395Z,98.10
2023-01-18T02:49:38.651Z,98.10
2023-01-18T02:52:42.170Z,98.10
2023-01-18T02:55:49.637Z,98.10
2023-01-18T02:58:59.269Z,98.10
2023-01-18T03:02:20.866Z,98.10
2023-01-18T03:05:24.680Z,98.10
2023-01-18T03:08:46.275Z,98.10
2023-01-18T03:12:03.208Z,98.40
2023-01-18T03:15:14.040Z,98.10
2023-01-18T03:18:22.228Z,98.10
2023-01-18T03:21:24.913Z,98.10
2023-01-18T03:24:30.487Z,98.00
2023-01-18T03:27:51.462Z,98.00
2023-01-18T03:31:16.469Z,98.00
2023-01-18T03:34:30.229Z,98.00
2023-01-18T03:37:40.125Z,98.00
2023-01-18T03:40:42.414Z,98.00
2023-01-18T03:43:47.136Z,98.00
2023-01-18T03:46:49.626Z,98.00
2023-01-18T03:49:52.060Z,97.90
2023-01-18T03:52:59.534Z,97.90
2023-01-18T03:56:06.984Z,97.90
2023-01-18T03:59:09.330Z,97.90
2023-01-18T04:02:11.773Z,97.90
2023-01-18T04:05:14.855Z,97.90
2023-01-18T04:08:17.039Z,97.80
2023-01-18T04:11:19.623Z,97.80
2023-01-18T04:14:21.684Z,97.80
2023-01-18T04:17:23.811Z,97.80
2023-01-18T04:20:26.015Z,97.70
2023-01-18T04:23:28.613Z,97.70
2023-01-18T04:26:30.890Z,97.70
2023-01-18T04:29:33.054Z,97.70
2023-01-18T04:32:35.153Z,97.70
2023-01-18T04:35:37.324Z,97.70
2023-01-18T04:38:39.432Z,97.70
2023-01-18T04:41:41.720Z,97.70
2023-01-18T04:44:43.934Z,97.70
2023-01-18T04:47:46.536Z,97.60
2023-01-18T04:50:48.869Z,97.60
2023-01-18T04:53:51.806Z,97.60
2023-01-18T04:56:54.079Z,97.60
2023-01-18T04:59:56.260Z,97.60
2023-01-18T05:02:58.796Z,97.60
2023-01-18T05:06:01.231Z,97.60
2023-01-18T05:09:03.720Z,97.60
2023-01-18T05:12:06.111Z,97.60
2023-01-18T05:15:08.932Z,97.50
2023-01-18T05:18:11.129Z,97.50
2023-01-18T05:21:13.797Z,97.50
2023-01-18T05:24:16.061Z,97.50
2023-01-18T05:27:18.276Z,97.50
2023-01-18T05:30:20.582Z,97.50
2023-01-18T05:33:23.521Z,97.50
2023-01-18T05:36:25.706Z,97.50
2023-01-18T05:39:27.922Z,97.50
2023-01-18T05:42:30.058Z,97.40
2023-01-18T05:45:32.222Z,97.40
2023-01-18T05:48:34.624Z,97.40
2023-01-18T05:51:36.805Z,97.40
2023-01-18T05:54:39.032Z,97.40
2023-01-18T05:57:41.255Z,97.30
2023-01-18T06:00:43.376Z,97.10
2023-01-18T06:03:45.485Z,97.00
2023-01-18T06:06:47.689Z,96.90
2023-01-18T06:09:49.920Z,96.90
2023-01-18T06:12:52.213Z,96.80
2023-01-18T06:15:55.307Z,96.80
2023-01-18T06:18:57.398Z,96.80
2023-01-18T06:21:59.466Z,96.80
2023-01-18T06:25:01.625Z,96.70
2023-01-18T06:28:05.294Z,96.70
2023-01-18T06:31:08.535Z,96.70
2023-01-18T06:34:10.756Z,96.70
2023-01-18T06:37:13.462Z,96.70
2023-01-18T06:40:15.920Z,96.60
2023-01-18T06:43:18.084Z,96.60
2023-01-18T06:46:20.490Z,96.60
2023-01-18T06:49:22.669Z,96.50
2023-01-18T06:52:24.878Z,96.50
2023-01-18T06:55:26.997Z,96.50
2023-01-18T06:58:32.894Z,96.50
2023-01-18T07:01:35.236Z,96.50
2023-01-18T07:04:44.193Z,96.50
2023-01-18T07:07:46.512Z,96.40
2023-01-18T07:10:49.069Z,96.40
2023-01-18T07:13:51.989Z,96.40
2023-01-18T07:16:54.259Z,96.40
2023-01-18T07:19:56.512Z,96.40
2023-01-18T07:22:59.076Z,96.40
2023-01-18T07:26:06.814Z,96.30
2023-01-18T07:29:09.246Z,96.30
2023-01-18T07:32:11.355Z,96.30
2023-01-18T07:35:13.571Z,96.30
2023-01-18T07:38:15.743Z,96.20
2023-01-18T07:41:18.099Z,96.20
2023-01-18T07:44:20.544Z,96.20
2023-01-18T07:47:22.614Z,96.20
2023-01-18T07:50:24.766Z,96.20
2023-01-18T07:53:28.235Z,96.20
2023-01-18T07:56:30.761Z,96.20
2023-01-18T07:59:33.656Z,96.20
2023-01-18T08:02:35.834Z,96.20
2023-01-18T08:05:38.223Z,96.20
2023-01-18T08:08:40.711Z,96.10
2023-01-18T08:11:42.985Z,96.10
2023-01-18T08:14:46.050Z,96.10
2023-01-18T08:17:51.290Z,96.10
2023-01-18T08:20:55.167Z,96.10
2023-01-18T08:23:57.482Z,96.10
2023-01-18T08:26:59.642Z,96.10
2023-01-18T08:30:01.810Z,96.00
2023-01-18T08:33:04.406Z,96.00
2023-01-18T08:36:10.566Z,96.00
2023-01-18T08:39:13.738Z,96.00
2023-01-18T08:42:16.086Z,96.00
2023-01-18T08:45:18.367Z,96.00
2023-01-18T08:48:20.588Z,96.00
2023-01-18T08:51:25.996Z,96.00
2023-01-18T08:54:28.311Z,96.00
2023-01-18T08:57:30.889Z,95.90
2023-01-18T09:00:33.273Z,96.00
2023-01-18T09:03:35.952Z,95.90
2023-01-18T09:06:38.160Z,95.90
2023-01-18T09:09:40.373Z,95.90
2023-01-18T09:12:42.637Z,95.90
2023-01-18T09:15:47.028Z,95.90
2023-01-18T09:18:50.484Z,95.80
2023-01-18T09:21:52.651Z,95.90
2023-01-18T09:24:54.845Z,95.80
2023-01-18T09:27:57.032Z,95.80
2023-01-18T09:31:11.024Z,95.80
2023-01-18T09:34:19.176Z,95.80
2023-01-18T09:37:22.030Z,95.80
2023-01-18T09:40:46.316Z,95.80
2023-01-18T09:43:51.534Z,95.80
2023-01-18T09:46:58.294Z,95.80
2023-01-18T09:50:06.443Z,95.80
2023-01-18T09:53:18.887Z,95.80
2023-01-18T09:56:40.688Z,95.80
2023-01-18T10:00:00.947Z,95.80
2023-01-18T10:03:08.189Z,95.70
2023-01-18T10:06:17.766Z,95.80
2023-01-18T10:09:26.527Z,95.70
2023-01-18T10:12:31.865Z,95.70
2023-01-18T10:15:37.032Z,95.70
2023-01-18T10:18:45.832Z,95.70
2023-01-18T10:22:23.437Z,95.70
2023-01-18T10:26:12.856Z,95.70
2023-01-18T10:29:21.341Z,95.70
2023-01-18T10:32:26.040Z,95.60
2023-01-18T10:35:36.665Z,95.60
2023-01-18T10:38:40.998Z,95.60
2023-01-18T10:41:44.080Z,95.60
2023-01-18T10:44:46.256Z,95.60
2023-01-18T10:47:50.080Z,95.60
2023-01-18T10:50:55.875Z,95.60
2023-01-18T10:53:58.477Z,95.60
2023-01-18T10:57:05.261Z,95.50
2023-01-18T11:00:21.510Z,95.50
2023-01-18T11:03:26.429Z,95.60
2023-01-18T11:06:29.871Z,95.50
2023-01-18T11:09:46.603Z,95.50
2023-01-18T11:12:52.295Z,95.50
2023-01-18T11:16:13.830Z,95.50
2023-01-18T11:19:20.037Z,95.50
2023-01-18T11:22:24.016Z,95.50
2023-01-18T11:25:34.887Z,95.50
2023-01-18T11:28:45.899Z,95.50
2023-01-18T11:31:50.238Z,95.50
2023-01-18T11:34:55.280Z,95.50
2023-01-18T11:38:03.124Z,95.50
2023-01-18T11:41:28.182Z,95.50
2023-01-18T11:44:35.145Z,95.40
2023-01-18T11:47:58.610Z,95.40
2023-01-18T11:51:08.566Z,95.40
2023-01-18T11:54:22.932Z,95.40
2023-01-18T11:57:25.246Z,95.40
2023-01-18T12:00:32.118Z,95.30
2023-01-18T12:03:40.332Z,95.30
2023-01-18T12:07:29.983Z,95.30
2023-01-18T12:10:57.536Z,95.30
2023-01-18T12:14:00.004Z,95.30
2023-01-18T12:17:24.221Z,95.30
2023-01-18T12:20:55.743Z,95.30
2023-01-18T12:24:16.177Z,95.30
2023-01-18T12:27:43.918Z,95.20
2023-01-18T12:31:04.891Z,95.30
2023-01-18T12:34:38.552Z,95.20
2023-01-18T12:38:13.502Z,95.30
2023-01-18T12:41:21.928Z,95.30
2023-01-18T12:44:54.658Z,95.30
2023-01-18T12:48:18.808Z,95.30
2023-01-18T12:51:24.087Z,95.30
2023-01-18T12:54:31.651Z,95.30
2023-01-18T12:57:35.159Z,95.30
2023-01-18T13:00:40.425Z,95.30
2023-01-18T13:03:46.307Z,95.30
2023-01-18T13:06:51.851Z,95.30
2023-01-18T13:09:54.761Z,95.30
2023-01-18T13:12:58.291Z,95.30
2023-01-18T13:16:17.356Z,95.30
2023-01-18T13:19:24.889Z,95.30
2023-01-18T13:22:50.822Z,95.20
2023-01-18T13:26:21.393Z,95.20
2023-01-18T13:29:29.726Z,95.20
2023-01-18T13:32:35.721Z,95.20
2023-01-18T13:35:38.444Z,95.20
2023-01-18T13:38:53.380Z,95.20
2023-01-18T13:42:04.487Z,95.20
2023-01-18T13:45:30.566Z,95.20
2023-01-18T13:48:57.508Z,95.20
2023-01-18T13:51:59.869Z,95.20
2023-01-18T13:55:04.007Z,95.20
2023-01-18T13:58:24.502Z,95.20
2023-01-18T14:01:32.707Z,95.20
2023-01-18T14:04:36.387Z,95.20
2023-01-18T14:07:43.779Z,95.20
2023-01-18T14:10:53.285Z,95.20
2023-01-18T14:13:55.445Z,95.20
2023-01-18T14:17:18.219Z,95.20
2023-01-18T14:20:43.038Z,95.20
2023-01-18T14:24:09.689Z,95.20
2023-01-18T14:27:20.209Z,95.20
2023-01-18T14:30:25.923Z,95.20
2023-01-18T14:33:37.557Z,95.20
2023-01-18T14:36:39.776Z,95.20
2023-01-18T14:39:42.126Z,95.20
2023-01-18T14:43:07.658Z,95.20
2023-01-18T14:46:23.292Z,95.20
2023-01-18T14:49:30.391Z,95.20
2023-01-18T14:52:34.608Z,95.20
2023-01-18T14:55:36.829Z,95.10
2023-01-18T14:58:50.588Z,95.20
2023-01-18T15:01:56.507Z,95.10
2023-01-18T15:05:17.184Z,95.10
2023-01-18T15:08:20.375Z,95.20
2023-01-18T15:11:24.238Z,95.20
2023-01-18T15:14:32.612Z,95.20
2023-01-18T15:17:37.028Z,95.20
2023-01-18T15:20:59.327Z,95.10
2023-01-18T15:24:06.779Z,95.20
2023-01-18T15:27:17.971Z,95.20
2023-01-18T15:30:23.617Z,95.20
2023-01-18T15:33:27.605Z,95.20
2023-01-18T15:36:29.891Z,95.20
2023-01-18T15:39:33.504Z,95.20
2023-01-18T15:43:01.477Z,95.20
2023-01-18T15:46:17.026Z,95.20
2023-01-18T15:49:19.303Z,95.20
2023-01-18T15:52:43.817Z,95.20
2023-01-18T15:55:58.727Z,95.20
2023-01-18T15:59:06.836Z,95.20
2023-01-18T16:02:09.119Z,95.20
2023-01-18T16:05:21.828Z,95.20
2023-01-18T16:08:24.488Z,95.20
2023-01-18T16:11:40.651Z,95.20
2023-01-18T16:14:46.353Z,95.20
2023-01-18T16:17:48.683Z,95.50
2023-01-18T16:20:50.910Z,95.20
2023-01-18T16:23:54.108Z,95.20
2023-01-18T16:26:58.528Z,95.10
2023-01-18T16:30:05.562Z,95.10
2023-01-18T16:33:09.973Z,95.20
2023-01-18T16:36:17.793Z,95.20
2023-01-18T16:39:21.092Z,95.30
2023-01-18T16:42:29.612Z,95.60
2023-01-18T16:45:39.338Z,95.30
2023-01-18T16:48:41.533Z,95.30
2023-01-18T16:51:43.799Z,95.40
2023-01-18T16:54:46.367Z,95.40
2023-01-18T16:57:51.431Z,95.40
2023-01-18T17:01:07.321Z,95.40
2023-01-18T17:04:11.686Z,95.50
2023-01-18T17:07:14.257Z,95.50
2023-01-18T17:10:31.286Z,95.50
2023-01-18T17:13:33.431Z,95.50
2023-01-18T17:16:35.657Z,95.50
2023-01-18T17:19:38.154Z,95.50
2023-01-18T17:22:40.358Z,95.50
2023-01-18T17:25:43.654Z,95.50
2023-01-18T17:28:45.866Z,95.50
2023-01-18T17:31:53.352Z,95.50
2023-01-18T17:34:57.097Z,95.50
2023-01-18T17:38:05.338Z,95.50
2023-01-18T17:41:26.852Z,95.60
2023-01-18T17:44:36.781Z,95.60
2023-01-18T17:47:39.615Z,95.60
2023-01-18T17:50:42.498Z,95.60
2023-01-18T17:53:44.777Z,95.60
2023-01-18T17:56:47.522Z,95.60
2023-01-18T17:59:53.063Z,95.60
2023-01-18T18:02:57.597Z,95.60
2023-01-18T18:06:01.240Z,95.60
2023-01-18T18:09:03.983Z,95.60
2023-01-18T18:12:07.312Z,95.70
2023-01-18T18:15:09.884Z,95.70
2023-01-18T18:18:22.810Z,95.60
2023-01-18T18:21:27.363Z,95.70
2023-01-18T18:24:29.590Z,95.70
2023-01-18T18:27:44.702Z,95.70
2023-01-18T18:30:50.097Z,95.70
2023-01-18T18:33:53.811Z,95.70
2023-01-18T18:36:56.870Z,95.70
2023-01-18T18:40:00.268Z,95.70
2023-01-18T18:43:03.912Z,95.70
2023-01-18T18:46:06.649Z,95.70
2023-01-18T18:49:08.880Z,95.70
2023-01-18T18:52:11.147Z,95.70
2023-01-18T18:55:13.607Z,95.70
2023-01-18T18:58:15.898Z,95.70
2023-01-18T19:01:21.391Z,95.70
2023-01-18T19:04:23.824Z,95.70
2023-01-18T19:07:26.147Z,95.70
2023-01-18T19:10:30.527Z,95.70
2023-01-18T19:13:32.805Z,95.70
2023-01-18T19:16:36.897Z,95.70
2023-01-18T19:19:39.149Z,95.70
2023-01-18T19:22:41.617Z,95.70
2023-01-18T19:25:44.078Z,95.70
2023-01-18T19:28:47.331Z,95.70
2023-01-18T19:31:49.570Z,95.70
2023-01-18T19:34:51.716Z,95.70
2023-01-18T19:37:54.180Z,95.70
2023-01-18T19:41:01.837Z,95.70
2023-01-18T19:44:04.289Z,95.70
2023-01-18T19:47:06.466Z,95.70
2023-01-18T19:50:09.076Z,95.70
2023-01-18T19:53:11.207Z,95.70
2023-01-18T19:56:13.393Z,95.70
2023-01-18T19:59:15.752Z,95.70
2023-01-18T20:02:18.268Z,95.70
2023-01-18T20:05:20.750Z,95.70
2023-01-18T20:08:23.055Z,95.70
2023-01-18T20:11:25.503Z,95.60
2023-01-18T20:14:40.424Z,95.70
2023-01-18T20:17:43.732Z,95.60
2023-01-18T20:20:45.890Z,95.60
2023-01-18T20:23:48.576Z,95.60
2023-01-18T20:26:50.702Z,95.60
2023-01-18T20:29:52.853Z,95.60
2023-01-18T20:32:55.223Z,95.60
2023-01-18T20:35:57.486Z,95.60
2023-01-18T20:38:59.667Z,95.60
2023-01-18T20:42:01.866Z,95.60
2023-01-18T20:45:04.919Z,95.60
2023-01-18T20:48:07.396Z,95.60
2023-01-18T20:51:09.741Z,95.60
2023-01-18T20:54:11.847Z,95.60
2023-01-18T20:57:14.024Z,95.60
2023-01-18T21:00:17.717Z,95.60
2023-01-18T21:03:21.264Z,95.60
2023-01-18T21:06:23.734Z,95.60
2023-01-18T21:09:26.395Z,95.60
2023-01-18T21:12:28.623Z,95.70
2023-01-18T21:15:30.774Z,95.90
2023-01-18T21:18:33.005Z,95.60
2023-01-18T21:21:36.067Z,95.60
2023-01-18T21:24:38.435Z,95.60
2023-01-18T21:27:43.329Z,95.60
2023-01-18T21:30:45.631Z,95.70
2023-01-18T21:33:47.714Z,95.60
2023-01-18T21:36:51.630Z,95.60
2023-01-18T21:39:53.947Z,95.60
2023-01-18T21:43:14.594Z,95.60
2023-01-18T21:46:16.951Z,95.60
2023-01-18T21:53:19.161Z,95.60
2023-01-18T21:56:21.893Z,95.60
2023-01-18T21:59:24.082Z,95.60
2023-01-18T22:02:26.498Z,95.60
2023-01-18T22:05:28.701Z,95.60
2023-01-18T22:08:31.016Z,95.60
2023-01-18T22:11:33.264Z,95.60
2023-01-18T22:14:35.442Z,95.60
2023-01-18T22:17:37.876Z,95.70
2023-01-18T22:20:40.078Z,95.60
2023-01-18T22:23:42.425Z,95.60
2023-01-18T22:26:45.587Z,95.70
2023-01-18T22:29:48.350Z,95.60
2023-01-18T22:32:50.505Z,95.60
2023-01-18T22:35:58.506Z,95.60
2023-01-18T22:39:00.827Z,95.60
2023-01-18T22:42:03.032Z,95.60
2023-01-18T22:45:05.616Z,95.60
2023-01-18T22:48:08.191Z,95.60
2023-01-18T22:51:13.375Z,95.60
2023-01-18T22:54:16.051Z,95.60
2023-01-18T22:57:18.390Z,95.60
2023-01-18T23:00:20.732Z,95.60
2023-01-18T23:03:23.521Z,95.60
2023-01-18T23:06:26.552Z,95.60
2023-01-18T23:09:29.455Z,95.60
2023-01-18T23:12:31.584Z,95.60
2023-01-18T23:15:52.237Z,95.60
2023-01-18T23:18:54.407Z,95.60
2023-01-18T23:21:56.879Z,95.60
2023-01-18T23:24:59.107Z,95.60
2023-01-18T23:28:03.411Z,95.60
2023-01-18T23:31:05.712Z,95.60
2023-01-18T23:34:08.269Z,95.60
2023-01-18T23:37:10.496Z,95.60
2023-01-18T23:40:31.321Z,95.60
2023-01-18T23:43:52.126Z,95.60
2023-01-18T23:47:12.903Z,95.50
2023-01-18T23:50:33.740Z,95.50
2023-01-18T23:53:54.591Z,95.50
2023-01-18T23:56:56.706Z,95.50
2023-01-18T23:59:59.152Z,95.50
